Fort Lauderdale, Florida
Current Conditions -  °F | °C
As of 3:53 PM on Monday 24 Nov 2014 (Local Time) from KFLL Reporting Station
Broken Clouds Broken Clouds  
Wind Chill: 85°   Ceiling: 30000
Heat Index: 92°   Visibility: 10mi
Dew Point: 74°   Wind: 14mph
Humidity: 69%   Direction: 170°S
Pressure: 29.95"   Gusts: NA
Location:  26.12°N, 80.15°W
Report Text: KFLL 242053Z 17012KT 10SM FEW024 BKN300 29/23 A2995 RMK AO2 SLP142 T02940233 55003
Loading
Personal Weather Stations






























Interactive Weather Map New forecast layout! Learn more

10-Day Weather Forecast

Advertisements
Track Severe Weather on mobile